sensor_id;sensor_type;location;lat;lon;timestamp;temperature;humidity
39095;DHT22;24840;47.508;19.376;2023-02-20T00:01:23;3.60;99.90
39095;DHT22;24840;47.508;19.376;2023-02-20T00:03:48;3.60;99.90
39095;DHT22;24840;47.508;19.376;2023-02-20T00:06:14;3.60;99.90
39095;DHT22;24840;47.508;19.376;2023-02-20T00:08:40;3.60;99.90
39095;DHT22;24840;47.508;19.376;2023-02-20T00:11:06;3.60;99.90
39095;DHT22;24840;47.508;19.376;2023-02-20T00:13:32;3.50;99.90
39095;DHT22;24840;47.508;19.376;2023-02-20T00:15:57;3.50;99.90
39095;DHT22;24840;47.508;19.376;2023-02-20T00:18:23;3.50;99.90
39095;DHT22;24840;47.508;19.376;2023-02-20T00:20:49;3.50;99.90
39095;DHT22;24840;47.508;19.376;2023-02-20T00:23:15;3.40;99.90
39095;DHT22;24840;47.508;19.376;2023-02-20T00:25:40;3.40;99.90
39095;DHT22;24840;47.508;19.376;2023-02-20T00:28:06;3.50;99.90
39095;DHT22;24840;47.508;19.376;2023-02-20T00:30:32;3.40;99.90
39095;DHT22;24840;47.508;19.376;2023-02-20T00:32:58;3.40;99.90
39095;DHT22;24840;47.508;19.376;2023-02-20T00:35:24;3.30;99.90
39095;DHT22;24840;47.508;19.376;2023-02-20T00:37:51;3.20;99.90
39095;DHT22;24840;47.508;19.376;2023-02-20T00:40:19;3.20;99.90
39095;DHT22;24840;47.508;19.376;2023-02-20T00:42:45;3.10;99.90
39095;DHT22;24840;47.508;19.376;2023-02-20T00:45:12;3.00;99.90
39095;DHT22;24840;47.508;19.376;2023-02-20T00:47:38;2.90;99.90
39095;DHT22;24840;47.508;19.376;2023-02-20T00:50:05;2.90;99.90
39095;DHT22;24840;47.508;19.376;2023-02-20T00:52:31;2.90;99.90
39095;DHT22;24840;47.508;19.376;2023-02-20T00:54:57;2.80;99.90
39095;DHT22;24840;47.508;19.376;2023-02-20T00:57:23;2.60;99.90
39095;DHT22;24840;47.508;19.376;2023-02-20T00:59:49;2.50;99.90
39095;DHT22;24840;47.508;19.376;2023-02-20T01:02:15;2.50;99.90
39095;DHT22;24840;47.508;19.376;2023-02-20T01:04:41;2.50;99.90
39095;DHT22;24840;47.508;19.376;2023-02-20T01:07:07;2.40;99.90
39095;DHT22;24840;47.508;19.376;2023-02-20T01:09:33;2.40;99.90
39095;DHT22;24840;47.508;19.376;2023-02-20T01:11:59;2.40;99.90
39095;DHT22;24840;47.508;19.376;2023-02-20T01:14:25;2.30;99.90
39095;DHT22;24840;47.508;19.376;2023-02-20T01:16:52;2.20;99.90
39095;DHT22;24840;47.508;19.376;2023-02-20T01:19:19;2.20;99.90
39095;DHT22;24840;47.508;19.376;2023-02-20T01:21:45;2.10;99.90
39095;DHT22;24840;47.508;19.376;2023-02-20T01:24:13;2.00;99.90
39095;DHT22;24840;47.508;19.376;2023-02-20T01:26:41;2.00;99.90
39095;DHT22;24840;47.508;19.376;2023-02-20T01:29:07;1.90;99.90
39095;DHT22;24840;47.508;19.376;2023-02-20T01:31:33;1.90;99.90
39095;DHT22;24840;47.508;19.376;2023-02-20T01:33:58;2.00;99.90
39095;DHT22;24840;47.508;19.376;2023-02-20T01:36:24;1.90;99.90
39095;DHT22;24840;47.508;19.376;2023-02-20T01:38:52;1.90;99.90
39095;DHT22;24840;47.508;19.376;2023-02-20T01:41:18;1.80;99.90
39095;DHT22;24840;47.508;19.376;2023-02-20T01:43:45;1.50;99.90
39095;DHT22;24840;47.508;19.376;2023-02-20T01:49:05;1.60;99.90
39095;DHT22;24840;47.508;19.376;2023-02-20T01:51:34;1.50;99.90
39095;DHT22;24840;47.508;19.376;2023-02-20T01:54:02;1.50;99.90
39095;DHT22;24840;47.508;19.376;2023-02-20T01:56:28;1.50;99.90
39095;DHT22;24840;47.508;19.376;2023-02-20T01:58:54;1.40;99.90
39095;DHT22;24840;47.508;19.376;2023-02-20T02:01:20;1.50;99.90
39095;DHT22;24840;47.508;19.376;2023-02-20T02:04:03;1.40;99.90
39095;DHT22;24840;47.508;19.376;2023-02-20T02:06:32;1.20;99.90
39095;DHT22;24840;47.508;19.376;2023-02-20T02:09:03;1.30;99.90
39095;DHT22;24840;47.508;19.376;2023-02-20T02:11:30;1.10;99.90
39095;DHT22;24840;47.508;19.376;2023-02-20T02:13:56;1.20;99.90
39095;DHT22;24840;47.508;19.376;2023-02-20T02:16:31;1.20;99.90
39095;DHT22;24840;47.508;19.376;2023-02-20T02:39:42;1.00;99.90
39095;DHT22;24840;47.508;19.376;2023-02-20T02:42:35;0.90;99.90
39095;DHT22;24840;47.508;19.376;2023-02-20T02:45:28;0.90;99.90
39095;DHT22;24840;47.508;19.376;2023-02-20T02:50:37;0.80;99.90
39095;DHT22;24840;47.508;19.376;2023-02-20T02:53:07;0.80;99.90
39095;DHT22;24840;47.508;19.376;2023-02-20T02:55:33;0.80;99.90
39095;DHT22;24840;47.508;19.376;2023-02-20T02:58:01;0.80;99.90
39095;DHT22;24840;47.508;19.376;2023-02-20T03:00:46;0.80;99.90
39095;DHT22;24840;47.508;19.376;2023-02-20T03:03:32;0.70;99.90
39095;DHT22;24840;47.508;19.376;2023-02-20T03:06:06;0.90;99.90
39095;DHT22;24840;47.508;19.376;2023-02-20T03:08:53;0.80;99.90
39095;DHT22;24840;47.508;19.376;2023-02-20T03:11:26;0.80;99.90
39095;DHT22;24840;47.508;19.376;2023-02-20T03:14:26;0.80;99.90
39095;DHT22;24840;47.508;19.376;2023-02-20T03:17:32;0.70;99.90
39095;DHT22;24840;47.508;19.376;2023-02-20T03:20:14;0.70;99.90
39095;DHT22;24840;47.508;19.376;2023-02-20T03:23:02;0.90;99.90
39095;DHT22;24840;47.508;19.376;2023-02-20T03:25:39;0.90;99.90
39095;DHT22;24840;47.508;19.376;2023-02-20T03:33:35;1.00;99.90
39095;DHT22;24840;47.508;19.376;2023-02-20T03:36:51;0.90;99.90
39095;DHT22;24840;47.508;19.376;2023-02-20T03:39:41;1.00;99.90
39095;DHT22;24840;47.508;19.376;2023-02-20T03:42:30;1.20;99.90
39095;DHT22;24840;47.508;19.376;2023-02-20T03:45:17;1.20;99.90
39095;DHT22;24840;47.508;19.376;2023-02-20T03:47:46;1.30;99.90
39095;DHT22;24840;47.508;19.376;2023-02-20T03:50:15;1.40;99.90
39095;DHT22;24840;47.508;19.376;2023-02-20T03:52:41;1.20;99.90
39095;DHT22;24840;47.508;19.376;2023-02-20T03:55:07;1.20;99.90
39095;DHT22;24840;47.508;19.376;2023-02-20T03:57:38;1.20;99.90
39095;DHT22;24840;47.508;19.376;2023-02-20T04:00:17;1.00;99.90
39095;DHT22;24840;47.508;19.376;2023-02-20T04:02:46;0.90;99.90
39095;DHT22;24840;47.508;19.376;2023-02-20T04:05:20;1.10;99.90
39095;DHT22;24840;47.508;19.376;2023-02-20T04:08:07;1.00;99.90
39095;DHT22;24840;47.508;19.376;2023-02-20T04:10:44;0.90;99.90
39095;DHT22;24840;47.508;19.376;2023-02-20T04:13:12;1.10;99.90
39095;DHT22;24840;47.508;19.376;2023-02-20T04:15:40;1.30;99.90
39095;DHT22;24840;47.508;19.376;2023-02-20T04:18:15;1.40;99.90
39095;DHT22;24840;47.508;19.376;2023-02-20T04:20:44;1.40;99.90
39095;DHT22;24840;47.508;19.376;2023-02-20T04:23:16;1.50;99.90
39095;DHT22;24840;47.508;19.376;2023-02-20T04:25:58;1.30;99.90
39095;DHT22;24840;47.508;19.376;2023-02-20T04:28:26;1.30;99.90
39095;DHT22;24840;47.508;19.376;2023-02-20T04:30:52;1.30;99.90
39095;DHT22;24840;47.508;19.376;2023-02-20T04:33:18;1.20;99.90
39095;DHT22;24840;47.508;19.376;2023-02-20T04:35:44;1.30;99.90
39095;DHT22;24840;47.508;19.376;2023-02-20T04:38:10;1.30;99.90
39095;DHT22;24840;47.508;19.376;2023-02-20T04:40:36;1.30;99.90
39095;DHT22;24840;47.508;19.376;2023-02-20T04:43:02;1.30;99.90
39095;DHT22;24840;47.508;19.376;2023-02-20T04:45:28;1.30;99.90
39095;DHT22;24840;47.508;19.376;2023-02-20T04:47:54;1.40;99.90
39095;DHT22;24840;47.508;19.376;2023-02-20T04:50:30;1.40;99.90
39095;DHT22;24840;47.508;19.376;2023-02-20T04:52:56;1.30;99.90
39095;DHT22;24840;47.508;19.376;2023-02-20T04:55:22;1.40;99.90
39095;DHT22;24840;47.508;19.376;2023-02-20T04:57:49;1.40;99.90
39095;DHT22;24840;47.508;19.376;2023-02-20T05:00:17;1.40;99.90
39095;DHT22;24840;47.508;19.376;2023-02-20T05:02:43;1.50;99.90
39095;DHT22;24840;47.508;19.376;2023-02-20T05:05:29;1.60;99.90
39095;DHT22;24840;47.508;19.376;2023-02-20T05:07:57;1.70;99.90
39095;DHT22;24840;47.508;19.376;2023-02-20T05:10:24;1.70;99.90
39095;DHT22;24840;47.508;19.376;2023-02-20T05:12:50;1.70;99.90
39095;DHT22;24840;47.508;19.376;2023-02-20T05:15:17;1.80;99.90
39095;DHT22;24840;47.508;19.376;2023-02-20T05:17:43;1.80;99.90
39095;DHT22;24840;47.508;19.376;2023-02-20T05:20:11;1.90;99.90
39095;DHT22;24840;47.508;19.376;2023-02-20T05:22:37;1.90;99.90
39095;DHT22;24840;47.508;19.376;2023-02-20T05:25:03;1.90;99.90
39095;DHT22;24840;47.508;19.376;2023-02-20T05:27:29;1.90;99.90
39095;DHT22;24840;47.508;19.376;2023-02-20T05:29:56;2.00;99.90
39095;DHT22;24840;47.508;19.376;2023-02-20T05:32:24;2.00;99.90
39095;DHT22;24840;47.508;19.376;2023-02-20T05:34:51;2.00;99.90
39095;DHT22;24840;47.508;19.376;2023-02-20T05:37:18;2.00;99.90
39095;DHT22;24840;47.508;19.376;2023-02-20T05:39:45;1.90;99.90
39095;DHT22;24840;47.508;19.376;2023-02-20T05:42:12;1.90;99.90
39095;DHT22;24840;47.508;19.376;2023-02-20T05:44:38;1.90;99.90
39095;DHT22;24840;47.508;19.376;2023-02-20T05:47:04;1.90;99.90
39095;DHT22;24840;47.508;19.376;2023-02-20T05:49:32;1.80;99.90
39095;DHT22;24840;47.508;19.376;2023-02-20T05:51:59;1.80;99.90
39095;DHT22;24840;47.508;19.376;2023-02-20T05:54:25;1.90;99.90
39095;DHT22;24840;47.508;19.376;2023-02-20T05:56:51;2.00;99.90
39095;DHT22;24840;47.508;19.376;2023-02-20T05:59:19;2.00;99.90
39095;DHT22;24840;47.508;19.376;2023-02-20T06:01:45;2.00;99.90
39095;DHT22;24840;47.508;19.376;2023-02-20T06:04:12;2.10;99.90
39095;DHT22;24840;47.508;19.376;2023-02-20T06:06:40;2.10;99.90
39095;DHT22;24840;47.508;19.376;2023-02-20T06:09:08;2.20;99.90
39095;DHT22;24840;47.508;19.376;2023-02-20T06:11:38;2.20;99.90
39095;DHT22;24840;47.508;19.376;2023-02-20T06:14:05;2.30;99.90
39095;DHT22;24840;47.508;19.376;2023-02-20T06:16:31;2.40;99.90
39095;DHT22;24840;47.508;19.376;2023-02-20T06:18:57;2.40;99.90
39095;DHT22;24840;47.508;19.376;2023-02-20T06:21:25;2.50;99.90
39095;DHT22;24840;47.508;19.376;2023-02-20T06:23:53;2.50;99.90
39095;DHT22;24840;47.508;19.376;2023-02-20T06:26:21;2.50;99.90
39095;DHT22;24840;47.508;19.376;2023-02-20T06:28:46;2.60;99.90
39095;DHT22;24840;47.508;19.376;2023-02-20T06:31:20;2.60;99.90
39095;DHT22;24840;47.508;19.376;2023-02-20T06:33:46;2.60;99.90
39095;DHT22;24840;47.508;19.376;2023-02-20T06:36:31;2.70;99.90
39095;DHT22;24840;47.508;19.376;2023-02-20T06:38:57;2.60;99.90
39095;DHT22;24840;47.508;19.376;2023-02-20T06:41:23;2.70;99.90
39095;DHT22;24840;47.508;19.376;2023-02-20T06:43:49;2.80;99.90
39095;DHT22;24840;47.508;19.376;2023-02-20T06:46:15;2.80;99.90
39095;DHT22;24840;47.508;19.376;2023-02-20T06:48:49;2.80;99.90
39095;DHT22;24840;47.508;19.376;2023-02-20T06:51:20;2.90;99.90
39095;DHT22;24840;47.508;19.376;2023-02-20T06:53:46;2.90;99.90
39095;DHT22;24840;47.508;19.376;2023-02-20T06:56:21;3.00;99.90
39095;DHT22;24840;47.508;19.376;2023-02-20T06:58:49;3.10;99.90
39095;DHT22;24840;47.508;19.376;2023-02-20T07:01:16;3.10;99.90
39095;DHT22;24840;47.508;19.376;2023-02-20T07:03:42;3.20;99.90
39095;DHT22;24840;47.508;19.376;2023-02-20T07:06:09;3.20;99.90
39095;DHT22;24840;47.508;19.376;2023-02-20T07:08:36;3.30;99.90
39095;DHT22;24840;47.508;19.376;2023-02-20T07:11:02;3.30;99.90
39095;DHT22;24840;47.508;19.376;2023-02-20T07:13:27;3.30;99.90
39095;DHT22;24840;47.508;19.376;2023-02-20T07:15:53;3.30;99.90
39095;DHT22;24840;47.508;19.376;2023-02-20T07:18:19;3.40;99.90
39095;DHT22;24840;47.508;19.376;2023-02-20T07:20:49;3.50;99.90
39095;DHT22;24840;47.508;19.376;2023-02-20T07:23:15;3.60;99.90
39095;DHT22;24840;47.508;19.376;2023-02-20T07:25:41;3.60;99.90
39095;DHT22;24840;47.508;19.376;2023-02-20T07:28:07;3.60;99.90
39095;DHT22;24840;47.508;19.376;2023-02-20T07:30:33;3.70;99.90
39095;DHT22;24840;47.508;19.376;2023-02-20T07:32:59;3.80;99.90
39095;DHT22;24840;47.508;19.376;2023-02-20T07:35:25;3.80;99.90
39095;DHT22;24840;47.508;19.376;2023-02-20T07:37:51;3.80;99.90
39095;DHT22;24840;47.508;19.376;2023-02-20T07:40:16;3.90;99.90
39095;DHT22;24840;47.508;19.376;2023-02-20T07:42:42;4.00;99.90
39095;DHT22;24840;47.508;19.376;2023-02-20T07:45:09;4.00;99.90
39095;DHT22;24840;47.508;19.376;2023-02-20T07:47:35;4.00;99.90
39095;DHT22;24840;47.508;19.376;2023-02-20T07:50:00;4.00;99.90
39095;DHT22;24840;47.508;19.376;2023-02-20T07:52:26;4.20;99.90
39095;DHT22;24840;47.508;19.376;2023-02-20T07:54:52;4.10;99.90
39095;DHT22;24840;47.508;19.376;2023-02-20T07:57:18;4.10;99.90
39095;DHT22;24840;47.508;19.376;2023-02-20T07:59:43;4.20;99.90
39095;DHT22;24840;47.508;19.376;2023-02-20T08:02:09;4.20;99.90
39095;DHT22;24840;47.508;19.376;2023-02-20T08:04:35;4.30;99.90
39095;DHT22;24840;47.508;19.376;2023-02-20T08:07:00;4.80;99.90
39095;DHT22;24840;47.508;19.376;2023-02-20T08:09:26;5.20;99.90
39095;DHT22;24840;47.508;19.376;2023-02-20T08:11:52;5.10;99.90
39095;DHT22;24840;47.508;19.376;2023-02-20T08:14:18;5.00;99.90
39095;DHT22;24840;47.508;19.376;2023-02-20T08:16:43;4.90;99.90
39095;DHT22;24840;47.508;19.376;2023-02-20T08:19:09;4.80;99.90
39095;DHT22;24840;47.508;19.376;2023-02-20T08:21:35;4.90;99.90
39095;DHT22;24840;47.508;19.376;2023-02-20T08:24:01;4.80;99.90
39095;DHT22;24840;47.508;19.376;2023-02-20T08:26:26;4.80;99.90
39095;DHT22;24840;47.508;19.376;2023-02-20T08:28:52;4.70;99.90
39095;DHT22;24840;47.508;19.376;2023-02-20T08:31:19;4.70;99.90
39095;DHT22;24840;47.508;19.376;2023-02-20T08:33:45;4.70;99.90
39095;DHT22;24840;47.508;19.376;2023-02-20T08:36:11;4.70;99.90
39095;DHT22;24840;47.508;19.376;2023-02-20T08:38:39;4.90;99.90
39095;DHT22;24840;47.508;19.376;2023-02-20T08:41:07;5.20;99.90
39095;DHT22;24840;47.508;19.376;2023-02-20T08:43:34;5.50;99.90
39095;DHT22;24840;47.508;19.376;2023-02-20T08:46:01;5.80;99.90
39095;DHT22;24840;47.508;19.376;2023-02-20T08:48:26;6.20;99.90
39095;DHT22;24840;47.508;19.376;2023-02-20T08:50:53;6.20;99.90
39095;DHT22;24840;47.508;19.376;2023-02-20T08:53:19;6.10;99.90
39095;DHT22;24840;47.508;19.376;2023-02-20T08:55:45;5.90;99.90
39095;DHT22;24840;47.508;19.376;2023-02-20T08:58:11;6.00;99.90
39095;DHT22;24840;47.508;19.376;2023-02-20T09:00:37;6.40;99.90
39095;DHT22;24840;47.508;19.376;2023-02-20T09:03:03;7.30;99.90
39095;DHT22;24840;47.508;19.376;2023-02-20T09:05:32;6.90;99.90
39095;DHT22;24840;47.508;19.376;2023-02-20T09:07:59;6.70;99.90
39095;DHT22;24840;47.508;19.376;2023-02-20T09:10:25;6.90;99.90
39095;DHT22;24840;47.508;19.376;2023-02-20T09:12:50;6.80;99.90
39095;DHT22;24840;47.508;19.376;2023-02-20T09:15:16;6.50;99.90
39095;DHT22;24840;47.508;19.376;2023-02-20T09:17:52;6.80;99.90
39095;DHT22;24840;47.508;19.376;2023-02-20T09:20:19;6.80;99.90
39095;DHT22;24840;47.508;19.376;2023-02-20T09:22:47;6.80;99.90
39095;DHT22;24840;47.508;19.376;2023-02-20T09:25:13;7.00;99.90
39095;DHT22;24840;47.508;19.376;2023-02-20T09:27:40;6.80;99.90
39095;DHT22;24840;47.508;19.376;2023-02-20T09:30:06;6.70;99.90
39095;DHT22;24840;47.508;19.376;2023-02-20T09:32:32;6.70;99.90
39095;DHT22;24840;47.508;19.376;2023-02-20T09:34:58;6.70;99.90
39095;DHT22;24840;47.508;19.376;2023-02-20T09:37:24;6.60;99.90
39095;DHT22;24840;47.508;19.376;2023-02-20T09:39:50;6.70;99.90
39095;DHT22;24840;47.508;19.376;2023-02-20T09:42:30;6.90;99.90
39095;DHT22;24840;47.508;19.376;2023-02-20T09:45:09;7.80;99.90
39095;DHT22;24840;47.508;19.376;2023-02-20T09:50:36;7.30;99.90
39095;DHT22;24840;47.508;19.376;2023-02-20T09:53:35;7.30;99.90
39095;DHT22;24840;47.508;19.376;2023-02-20T09:56:03;7.20;99.90
39095;DHT22;24840;47.508;19.376;2023-02-20T09:58:46;7.20;99.90
39095;DHT22;24840;47.508;19.376;2023-02-20T10:01:17;7.30;99.90
39095;DHT22;24840;47.508;19.376;2023-02-20T10:03:52;7.60;99.90
39095;DHT22;24840;47.508;19.376;2023-02-20T10:06:22;7.80;99.90
39095;DHT22;24840;47.508;19.376;2023-02-20T10:08:50;7.80;99.90
39095;DHT22;24840;47.508;19.376;2023-02-20T10:14:31;8.30;99.90
39095;DHT22;24840;47.508;19.376;2023-02-20T10:22:32;9.30;99.90
39095;DHT22;24840;47.508;19.376;2023-02-20T10:25:21;9.20;99.90
39095;DHT22;24840;47.508;19.376;2023-02-20T10:28:11;9.10;99.90
39095;DHT22;24840;47.508;19.376;2023-02-20T10:30:43;8.60;99.90
39095;DHT22;24840;47.508;19.376;2023-02-20T10:39:01;9.00;99.90
39095;DHT22;24840;47.508;19.376;2023-02-20T10:41:34;9.00;99.90
39095;DHT22;24840;47.508;19.376;2023-02-20T10:44:16;8.90;99.90
39095;DHT22;24840;47.508;19.376;2023-02-20T10:52:04;10.30;99.90
39095;DHT22;24840;47.508;19.376;2023-02-20T10:54:49;10.50;99.90
39095;DHT22;24840;47.508;19.376;2023-02-20T10:57:53;10.80;99.90
39095;DHT22;24840;47.508;19.376;2023-02-20T11:00:30;10.40;99.90
39095;DHT22;24840;47.508;19.376;2023-02-20T11:03:04;10.20;99.90
39095;DHT22;24840;47.508;19.376;2023-02-20T11:05:35;9.60;99.90
39095;DHT22;24840;47.508;19.376;2023-02-20T11:08:03;9.60;99.90
39095;DHT22;24840;47.508;19.376;2023-02-20T11:10:29;9.30;99.90
39095;DHT22;24840;47.508;19.376;2023-02-20T11:12:57;9.10;99.90
39095;DHT22;24840;47.508;19.376;2023-02-20T11:15:32;9.30;99.90
39095;DHT22;24840;47.508;19.376;2023-02-20T11:17:58;9.20;99.90
39095;DHT22;24840;47.508;19.376;2023-02-20T11:22:58;9.40;99.90
39095;DHT22;24840;47.508;19.376;2023-02-20T11:25:29;9.30;99.90
39095;DHT22;24840;47.508;19.376;2023-02-20T11:30:35;9.60;99.90
39095;DHT22;24840;47.508;19.376;2023-02-20T11:33:12;9.70;99.90
39095;DHT22;24840;47.508;19.376;2023-02-20T11:35:41;9.80;99.90
39095;DHT22;24840;47.508;19.376;2023-02-20T11:38:27;9.90;99.90
39095;DHT22;24840;47.508;19.376;2023-02-20T11:43:29;9.80;99.90
39095;DHT22;24840;47.508;19.376;2023-02-20T11:51:38;10.00;99.90
39095;DHT22;24840;47.508;19.376;2023-02-20T11:54:24;10.20;99.90
39095;DHT22;24840;47.508;19.376;2023-02-20T11:59:27;10.80;99.90
39095;DHT22;24840;47.508;19.376;2023-02-20T12:01:53;10.80;99.90
39095;DHT22;24840;47.508;19.376;2023-02-20T12:04:22;10.60;99.90
39095;DHT22;24840;47.508;19.376;2023-02-20T12:06:49;10.50;99.90
39095;DHT22;24840;47.508;19.376;2023-02-20T12:09:24;11.20;99.90
39095;DHT22;24840;47.508;19.376;2023-02-20T12:11:53;11.60;99.90
39095;DHT22;24840;47.508;19.376;2023-02-20T12:14:19;12.00;99.90
39095;DHT22;24840;47.508;19.376;2023-02-20T12:28:24;12.90;95.70
39095;DHT22;24840;47.508;19.376;2023-02-20T12:33:47;12.80;95.00
39095;DHT22;24840;47.508;19.376;2023-02-20T12:38:57;13.50;93.90
39095;DHT22;24840;47.508;19.376;2023-02-20T12:46:57;13.20;95.10
39095;DHT22;24840;47.508;19.376;2023-02-20T12:49:41;13.40;93.90
39095;DHT22;24840;47.508;19.376;2023-02-20T12:55:50;14.30;93.70
39095;DHT22;24840;47.508;19.376;2023-02-20T12:58:30;13.20;92.60
39095;DHT22;24840;47.508;19.376;2023-02-20T13:01:12;12.60;94.20
39095;DHT22;24840;47.508;19.376;2023-02-20T13:03:51;12.60;94.20
39095;DHT22;24840;47.508;19.376;2023-02-20T13:08:53;13.20;93.40
39095;DHT22;24840;47.508;19.376;2023-02-20T13:11:23;13.00;93.60
39095;DHT22;24840;47.508;19.376;2023-02-20T13:21:34;13.20;94.20
39095;DHT22;24840;47.508;19.376;2023-02-20T13:26:54;12.50;94.60
39095;DHT22;24840;47.508;19.376;2023-02-20T13:29:25;12.60;94.90
39095;DHT22;24840;47.508;19.376;2023-02-20T13:31:58;12.60;94.50
39095;DHT22;24840;47.508;19.376;2023-02-20T13:36:50;12.40;94.60
39095;DHT22;24840;47.508;19.376;2023-02-20T13:52:32;12.40;94.50
39095;DHT22;24840;47.508;19.376;2023-02-20T13:57:53;12.30;94.80
39095;DHT22;24840;47.508;19.376;2023-02-20T14:02:54;12.80;95.40
39095;DHT22;24840;47.508;19.376;2023-02-20T14:05:26;12.70;94.50
39095;DHT22;24840;47.508;19.376;2023-02-20T14:07:52;12.70;95.00
39095;DHT22;24840;47.508;19.376;2023-02-20T14:10:35;12.50;94.50
39095;DHT22;24840;47.508;19.376;2023-02-20T14:13:22;12.50;94.00
39095;DHT22;24840;47.508;19.376;2023-02-20T14:15:51;12.40;95.10
39095;DHT22;24840;47.508;19.376;2023-02-20T14:18:36;12.40;94.70
39095;DHT22;24840;47.508;19.376;2023-02-20T14:21:09;12.30;94.20
39095;DHT22;24840;47.508;19.376;2023-02-20T14:23:38;12.10;94.30
39095;DHT22;24840;47.508;19.376;2023-02-20T14:26:27;12.10;93.90
39095;DHT22;24840;47.508;19.376;2023-02-20T14:28:56;12.00;94.30
39095;DHT22;24840;47.508;19.376;2023-02-20T14:31:23;12.00;94.10
39095;DHT22;24840;47.508;19.376;2023-02-20T14:33:55;12.00;94.20
39095;DHT22;24840;47.508;19.376;2023-02-20T14:36:35;12.00;94.10
39095;DHT22;24840;47.508;19.376;2023-02-20T14:42:00;12.00;94.50
39095;DHT22;24840;47.508;19.376;2023-02-20T14:44:28;11.90;94.00
39095;DHT22;24840;47.508;19.376;2023-02-20T14:49:32;11.80;93.60
39095;DHT22;24840;47.508;19.376;2023-02-20T14:54:37;11.60;93.80
39095;DHT22;24840;47.508;19.376;2023-02-20T14:57:04;11.60;93.50
39095;DHT22;24840;47.508;19.376;2023-02-20T14:59:34;11.50;93.70
39095;DHT22;24840;47.508;19.376;2023-02-20T15:02:20;11.60;93.80
39095;DHT22;24840;47.508;19.376;2023-02-20T15:04:51;11.50;94.00
39095;DHT22;24840;47.508;19.376;2023-02-20T15:07:25;11.50;93.70
39095;DHT22;24840;47.508;19.376;2023-02-20T15:09:55;11.40;93.70
39095;DHT22;24840;47.508;19.376;2023-02-20T15:12:33;11.40;93.50
39095;DHT22;24840;47.508;19.376;2023-02-20T15:15:10;11.40;93.80
39095;DHT22;24840;47.508;19.376;2023-02-20T15:17:41;11.40;94.40
39095;DHT22;24840;47.508;19.376;2023-02-20T15:23:27;11.30;94.20
39095;DHT22;24840;47.508;19.376;2023-02-20T15:25:53;11.30;94.00
39095;DHT22;24840;47.508;19.376;2023-02-20T15:28:23;11.30;94.70
39095;DHT22;24840;47.508;19.376;2023-02-20T15:31:20;11.20;95.70
39095;DHT22;24840;47.508;19.376;2023-02-20T15:33:53;11.20;96.30
39095;DHT22;24840;47.508;19.376;2023-02-20T15:36:20;11.10;96.60
39095;DHT22;24840;47.508;19.376;2023-02-20T15:38:50;11.10;96.70
39095;DHT22;24840;47.508;19.376;2023-02-20T15:41:16;11.00;96.90
39095;DHT22;24840;47.508;19.376;2023-02-20T15:43:43;10.90;97.10
39095;DHT22;24840;47.508;19.376;2023-02-20T15:46:08;10.80;97.60
39095;DHT22;24840;47.508;19.376;2023-02-20T15:48:34;10.70;97.70
39095;DHT22;24840;47.508;19.376;2023-02-20T15:51:00;10.60;97.70
39095;DHT22;24840;47.508;19.376;2023-02-20T15:53:29;10.50;97.90
39095;DHT22;24840;47.508;19.376;2023-02-20T15:55:56;10.50;98.00
39095;DHT22;24840;47.508;19.376;2023-02-20T15:58:35;10.30;98.10
39095;DHT22;24840;47.508;19.376;2023-02-20T16:01:02;10.30;98.20
39095;DHT22;24840;47.508;19.376;2023-02-20T16:03:29;10.30;98.20
39095;DHT22;24840;47.508;19.376;2023-02-20T16:05:56;10.30;98.20
39095;DHT22;24840;47.508;19.376;2023-02-20T16:08:23;10.30;98.10
39095;DHT22;24840;47.508;19.376;2023-02-20T16:10:50;10.30;98.30
39095;DHT22;24840;47.508;19.376;2023-02-20T16:13:24;10.20;98.60
39095;DHT22;24840;47.508;19.376;2023-02-20T16:15:50;10.10;98.50
39095;DHT22;24840;47.508;19.376;2023-02-20T16:18:16;10.00;98.90
39095;DHT22;24840;47.508;19.376;2023-02-20T16:20:42;10.00;99.20
39095;DHT22;24840;47.508;19.376;2023-02-20T16:23:07;10.10;99.00
39095;DHT22;24840;47.508;19.376;2023-02-20T16:25:35;9.90;99.20
39095;DHT22;24840;47.508;19.376;2023-02-20T16:28:01;9.80;99.40
39095;DHT22;24840;47.508;19.376;2023-02-20T16:30:39;9.80;99.70
39095;DHT22;24840;47.508;19.376;2023-02-20T16:33:15;9.80;99.80
39095;DHT22;24840;47.508;19.376;2023-02-20T16:35:42;9.70;99.90
39095;DHT22;24840;47.508;19.376;2023-02-20T16:38:08;9.70;99.90
39095;DHT22;24840;47.508;19.376;2023-02-20T16:40:33;9.60;99.90
39095;DHT22;24840;47.508;19.376;2023-02-20T16:42:59;9.60;99.90
39095;DHT22;24840;47.508;19.376;2023-02-20T16:45:25;9.60;99.90
39095;DHT22;24840;47.508;19.376;2023-02-20T16:47:53;9.60;99.90
39095;DHT22;24840;47.508;19.376;2023-02-20T16:50:21;9.70;99.90
39095;DHT22;24840;47.508;19.376;2023-02-20T16:52:53;9.50;99.90
39095;DHT22;24840;47.508;19.376;2023-02-20T16:57:48;9.60;99.90
39095;DHT22;24840;47.508;19.376;2023-02-20T17:00:15;9.40;99.90
39095;DHT22;24840;47.508;19.376;2023-02-20T17:02:42;9.30;99.90
39095;DHT22;24840;47.508;19.376;2023-02-20T17:05:08;9.30;99.90
39095;DHT22;24840;47.508;19.376;2023-02-20T17:07:33;9.30;99.90
39095;DHT22;24840;47.508;19.376;2023-02-20T17:09:59;9.20;99.90
39095;DHT22;24840;47.508;19.376;2023-02-20T17:12:26;9.10;99.90
39095;DHT22;24840;47.508;19.376;2023-02-20T17:14:52;9.20;99.90
39095;DHT22;24840;47.508;19.376;2023-02-20T17:17:18;9.30;99.90
39095;DHT22;24840;47.508;19.376;2023-02-20T17:19:44;9.10;99.90
39095;DHT22;24840;47.508;19.376;2023-02-20T17:22:12;9.10;99.90
39095;DHT22;24840;47.508;19.376;2023-02-20T17:24:41;9.10;99.90
39095;DHT22;24840;47.508;19.376;2023-02-20T17:27:08;9.00;99.90
39095;DHT22;24840;47.508;19.376;2023-02-20T17:29:34;9.00;99.90
39095;DHT22;24840;47.508;19.376;2023-02-20T17:32:00;9.00;99.90
39095;DHT22;24840;47.508;19.376;2023-02-20T17:34:26;9.00;99.90
39095;DHT22;24840;47.508;19.376;2023-02-20T17:36:52;9.00;99.90
39095;DHT22;24840;47.508;19.376;2023-02-20T17:39:20;9.00;99.90
39095;DHT22;24840;47.508;19.376;2023-02-20T17:41:50;8.90;99.90
39095;DHT22;24840;47.508;19.376;2023-02-20T17:44:18;9.00;99.90
39095;DHT22;24840;47.508;19.376;2023-02-20T17:46:44;9.10;99.90
39095;DHT22;24840;47.508;19.376;2023-02-20T17:49:10;9.00;99.90
39095;DHT22;24840;47.508;19.376;2023-02-20T17:51:37;8.90;99.90
39095;DHT22;24840;47.508;19.376;2023-02-20T17:54:03;9.00;99.90
39095;DHT22;24840;47.508;19.376;2023-02-20T17:56:29;8.90;99.90
39095;DHT22;24840;47.508;19.376;2023-02-20T17:58:55;8.90;99.90
39095;DHT22;24840;47.508;19.376;2023-02-20T18:01:20;8.90;99.90
39095;DHT22;24840;47.508;19.376;2023-02-20T18:03:52;8.80;99.90
39095;DHT22;24840;47.508;19.376;2023-02-20T18:06:18;8.80;99.90
39095;DHT22;24840;47.508;19.376;2023-02-20T18:08:47;8.70;99.90